« 初便 成田国際空港 2019/5/24 fri | トップページ | マリンフェスタ2019inFUNABASHI 千葉港 2019/6/8 sat »

2019/06/07

偶然 成田国際空港 2019/5/25 sat

成田泊して翌日、まずは第1ターミナルから

RJAA 242300Z 31005KT 250V360 CAVOK 23/16 Q1016 NOSIG RMK A3001

20190525_rjaa_100ja02jj

JJP631 RJAA-RJFM JA02JJ A320-232

20190525_rjaa_101vna894

朝も早くから、ほとんどの穴はうまっています。かろうじてここにポジション。

20190525_rjaa_102ja14va

VAL905 RJAA-RJCC JA14VA A320-214

バニラもピーチ化が始まっています。

20190525_rjaa_103ja24jj

JJP103 RJAA-RJCC JA24JJ A320-232

20190525_rjaa_104n845mh

なーんだ、皆さんコレを待っていたのか・・

20190525_rjaa_105n845mh

DAL9936 ZGGG-RJAA N845MH B767-432ER

20190525_rjaa_106n845mh

-400見たのは、コンチネンタル以来かなぁ

20190525_rjaa_107phbvg

KLM861 EHAM-RJAA PH-BVG B777-306ER

RJAA 242330Z 32005KT 280V350 CAVOK 24/17 Q1016 NOSIG RMK A3001

20190525_rjaa_108n359up

UPS108 PANC-RJAA N359UP B767-34AFER

20190525_rjaa_109hbjmh

SWR160 LSZH-RJAA HB-JMH A340-313

20190525_rjaa_110hbjmh

日本国の政府専用機もこれくらいのビルボードが欲しいな

20190525_rjaa_111ja08jj

JJP505 RJAA-RJFF JA08JJ A320-232

20190525_rjaa_112pkgif

GIA880 WADD-RJAA PK-GIF B777-3U3ER

20190525_rjaa_113hslaj

TLM300 VTBD-RJAA HS-LAJ A330-343

20190525_rjaa_114hslaj

初見

20190525_rjaa_115splra

LOT79 EPWA-RJAA SP-LRA B787-8

20190525_rjaa_116splra

ポーランドと言えば連帯

20190525_rjaa_117b6941

CCA460 RJAA-ZUUU B-6941 A320-214

20190525_rjaa_118ja13jj

JJP619 RJAA-RJFF JA13JJ A320-232

20190525_rjaa_119b1527

CCA158 RJAA-ZSPD B-1527 B737-89L

20190525_rjaa_120n407kz

GTI7109 KSFO-RJAA N407KZ B747-4KZF

20190525_rjaa_121n407kz

アルビノはどう変化するのかな

20190525_rjaa_122bldb

AHK208 VHHH-RJAA B-LDB A300F4-605R

20190525_rjaa_123n869fd

FDX15 KMEM-RJAA N869FD B777-FS2

20190525_rjaa_124n858gt

PAC213 KCVG-RJAA N858GT B747-87UF

20190525_rjaa_125hl8257

AAR107 RJAA-RKSI HL8257 A321-231

20190525_rjaa_126ja53an

ANA2152 RJCC-RJAA JA53AN B737-881

20190525_rjaa_127ja03va

VNL907 RJAA-RJCC JA03VA A320-214

20190525_rjaa_128ja11kz

NCA225 RJAA-ZSPD JA11KZ B747-8F

20190525_rjaa_129n889fd

FDXxxxx xxxx-RJAA N889FD B777-FS2

これだけ情報が解らない。だれかおせーて

20190525_rjaa_130oykbd

20190525_rjaa_131oykbd

SAS983 EKCH-RJAA OY-KBD A340-313

20190525_rjaa_132n34282

UAL828 PGUM-RJAA N34282 B737-824

20190525_rjaa_133ja809p

APJ311 RJAA-RJBB JA809P A320-214

20190525_rjaa_134n34282

刃物はあまり見ないですね

20190525_rjaa_135blao

CPA509 RJAA-VHHH B-LAO A330-343

RJAA 250030Z 34005KT 260V030 CAVOK 26/15 Q1016 NOSIG RMK A3001

20190525_rjaa_136hl7551

KAL706 RJAA-RKSI HL7551 A330-322

20190525_rjaa_137ja602f

ANA8562 ROAH-RJAA JA602F B767-381FER

20190525_rjaa_138ja11jj

JJP621 RJAA-RJFK JA11JJ A320-232

20190525_rjaa_139n404kz

GTI7159 PANC-RJAA N404KZ B747-481F

20190525_rjaa_140vna894

お隣のベトナムが先に出発

20190525_rjaa_141blno

CRK611 RJAA-VHHH B-LNO A330-343

20190525_rjaa_142b18316

CAL107 RJAA-RCTP B-18316 A330-302

20190525_rjaa_143n454pa

PAC212 ZSPD-RJAA N454PA B747-46NF

20190525_rjaa_144hsxte

TAX600 VTBD-RJAA HS-XTE A330-343

20190525_rjaa_145ja8358

ANA8503 RJAA-ZBTJ JA8358 B767-381ERBCF

20190525_rjaa_146ja835j

JAL827 RJAA-ZYTL JA835J B787-8

20190525_rjaa_147n602fe

FDX5060 RJBB-RJAA N602FE MD-11F

20190525_rjaa_148rpc8789

PAL431 RJAA-RPLL RP-C8789 A330-343

20190525_rjaa_149ja601f

ANA8518 ZSPD-RJAA JA601F B767-381FER

20190525_rjaa_150vna894

この時間帯に3対地もあるのねベトナム

20190525_rjaa_151ja05gr

SOJ621 RJAA-RJOA JA05GR B737-8AL

20190525_rjaa_152b2409

CAO1073 ZSPD-RJAA B-2409 B747-412FSCD

20190525_rjaa_153vna894

A350は増えましたね

20190525_rjaa_154vna894

HVN301 RJAA-VVTS VN-A894 A350-941

20190525_rjaa_155vna895

HVN311 RJAA-VVNB VN-A895 A350-941

RJAA 250100Z VRB03KT CAVOK 27/15 Q1016 NOSIG RMK A3001

20190525_rjaa_156bljk

CPA5 RJAA-VHHH B-LJK B747-867F

20190525_rjaa_157rpc9928

PAL435 RJAA-RPVM RP-C9928 A321-231

20190525_rjaa_158ja874j

JAL741 RJAA-RPLL JA874J B787-9

20190525_rjaa_159n359up

UPS108 RJAA-ZSPD N359UP B767-34AFER

20190525_rjaa_160hl8016

JNA201 RKSI-RJAA HL8016 B737-8SH

20190525_rjaa_161ja01gr

SJO357 RJAA-ZUCK JA01GR B737-81D

20190525_rjaa_162ja828a

ANA919 RJAA-ZSPD JA828A B787-8

20190525_rjaa_163ja606j

JAL941 RJAA-PGUM JA606J B767-346ER

20190525_rjaa_164vna694

VJC933 RJAA-VVNB VN-A694 A320-271N

20190525_rjaa_165vqbua

AFL262 UUEE-RJAA VQ-BUA B777-3M0ER

20190525_rjaa_166vna334

HVN319 RJAA-VVDN VN-A334 A321-231

20190525_rjaa_167ja521a

ANA809 RJAA-VHHH JA621A B767-381ER

20190525_rjaa_168vna894

HVN301 RJAA-VVTS VN-A894 A350-941

20190525_rjaa_169ja845a

ANA3231 RJAA-RJSS JA845A DHC8-402Q

20190525_rjaa_170ja871j

JAL873 RJAA-ZSPD JA871J B787-9

20190525_rjaa_171ja19jj

JJP203 RJAA-RJBB JA19JJ A320-232

20190525_rjaa_172ja216a

ANA929 RJAA-ZSHC JA216A A320-271N

20190525_rjaa_173ja300k

ANA2141 RJAA-RJFF JA300K B737-54K

20190525_rjaa_174hbjmh

真ん中が気になる

20190525_rjaa_175ohlwk

FIN72 RJAA-EFHK OH-LWK A350-941

20190525_rjaa_176ja10va

VNL101 RJAA-RCTP JA10VA A320-214

RJAA 250130Z VRB02KT CAVOK 27/13 Q1016 NOSIG RMK A3001

20190525_rjaa_177ja8994

JA8894 TBM-700

20190525_rjaa_178ja212a

ANA935 RJAA-ZSAM JA212A A320-271N

20190525_rjaa_179ja804a

ANA903 RJAA-ZYTL JA804A B787-8

20190525_rjaa_180ja08va

VNL811 RJAA-ROIG JA08VA A320-214

20190525_rjaa_181hslaj

TLM301 RJAA-VTBD HS-LAJ A330-343

20190525_rjaa_182ja623a

ANA927 RJAA-ZSQD JA623A B767-381ER

20190525_rjaa_183ja53an

ANA2153 RJAA-RJCC JA53AN B737-881

20190525_rjaa_184x9vojf

TGW869 RJAA-VTBD 9V-OJF B787-9

20190525_rjaa_185eidbm

AZA784 LIRF-RJAA EI-DBM B777-243ER

20190525_rjaa_186hbjmh

SWR161 RJAA-LSZH HB-JMH A340-313

20190525_rjaa_187ja803a

ANA817 RJAA-VDPP JA803A B787-8

20190525_rjaa_188ja20jj

JJP643 RJAA-RJFU JA20JJ A320-232

20190525_rjaa_189ja803a

先ほどGWを出た-8が誘導路をUターン

20190525_rjaa_190n777dy

N777DY C680

20190525_rjaa_191eidip

AZA786 LIMC-RJAA EI-DIP A330-202

20190525_rjaa_192x9mmab

MAS89 RJAA-WMKK 9M-MAB A350-941

20190525_rjaa_193ja07va

VNL303 RJAA-VHHH JA07VA A320-214

RWチェンジの模様

20190525_rjaa_194splra

LOT80 RJAA-EPWA SP-LRA B787-8

20190525_rjaa_195hslaj

TLM301 RJAA-VTBD HS-LAJ A330-343

20190525_rjaa_196ja839j

JAL773 RJAA-YMML JA839J B787-8

20190525_rjaa_197ja335j

JAL3083 RJAA-RJGG JA335J B737-846

20190525_rjaa_198phbvg

KLM862 RJAA-EHAM PH-BVG B777-306ER

20190525_rjaa_199hl8301

JJA1182 RJAA-PGUM HL8301 B737-8BK

ここで100カット 次につづく

 

|

« 初便 成田国際空港 2019/5/24 fri | トップページ | マリンフェスタ2019inFUNABASHI 千葉港 2019/6/8 sat »

成田国際空港」カテゴリの記事

コメント

コメントを書く



(ウェブ上には掲載しません)


コメントは記事投稿者が公開するまで表示されません。



« 初便 成田国際空港 2019/5/24 fri | トップページ | マリンフェスタ2019inFUNABASHI 千葉港 2019/6/8 sat »